Terminal Aerodrome Forecast
Issued by NWS Cleveland, OH

Home | Current Version | Previous Version | Graphics & Text | Print | Product List | Glossary Off
Versions: 1 2 3 4 5 6 7 8 9 10 11 12 13 14 15 16 17 18 19 20 21 22 23

664
FTUS41 KCLE 170549
TAFMFD
TAF
KMFD 170549Z 1706/1806 VRB03KT P6SM BKN030
     FM171500 18008KT P6SM OVC200
     FM172200 20008KT P6SM OVC100
     FM180200 22010KT P6SM OVC035=

USA.gov is the U.S. government's official web portal to all federal, state and local government web resources and services.